METAR Data
IDs: Format: Raw Decoded Include TAF

Data at: 2122 UTC 31 Jan 2023

METAR for:KSPB (Scappoose Ind Airpar, OR, US)
Text:KSPB 312053Z AUTO 00000KT 10SM CLR 03/M06 A3025 RMK AO2 SLP243 T00281056 58017
Temperature: 2.8°C ( 37°F)
Dewpoint: -5.6°C ( 22°F) [RH = 54%]
Pressure (altimeter):30.25 inches Hg (1024.5 mb) [Sea level pressure: 1024.3 mb]
Winds:calm
Visibility:10 or more sm (16+ km)
Ceiling:at least 12,000 feet AGL
Clouds:sky clear below 12,000 feet AGL
QC Flag:automated observation with no human augmentation